This is the latest recevied weather packets stored in our database for station/object KC4GS-13. If no packets are shown the sender has not sent any weather packets the latest 10 day(s).
| Time | Temp. | Humidity | Pressure | Rain* | Wind** | Luminosity | Snow |
|---|---|---|---|---|---|---|---|
| 1778196390 | 23.33° C | 78% | 1011.7 hPa | 0 mm | - | 26 W/m² | - |
| 1778196088 | 23.33° C | 78% | 1011.6 hPa | 0 mm | - | 27 W/m² | - |
| 1778195784 | 23.33° C | 78% | 1011.3 hPa | 0 mm | - | 30 W/m² | - |
| 1778195481 | 23.89° C | 77% | 1011.3 hPa | 0 mm | - | 32 W/m² | - |
| 1778195177 | 23.89° C | 78% | 1011.6 hPa | 0 mm | - | 35 W/m² | - |
| 1778194875 | 23.89° C | 78% | 1011.4 hPa | 0 mm | - | 40 W/m² | - |
| 1778194569 | 23.89° C | 78% | 1011.4 hPa | 0 mm | - | 47 W/m² | - |
| 1778194266 | 24.44° C | 76% | 1011.3 hPa | 0 mm | - | 37 W/m² | - |
| 1778193961 | 24.44° C | 75% | 1011.2 hPa | 0 mm | - | 43 W/m² | - |
| 1778193658 | 24.44° C | 75% | 1011.2 hPa | 0 mm | - | 45 W/m² | - |
| 1778193354 | 25° C | 75% | 1011.2 hPa | 0 mm | - | 47 W/m² | - |
| 1778193051 | 25.56° C | 74% | 1011.1 hPa | 0 mm | - | 220 W/m² | - |
| 1778192749 | 25.56° C | 74% | 1011.3 hPa | 0 mm | - | 154 W/m² | - |
| 1778192445 | 25° C | 75% | 1011.3 hPa | 0 mm | - | 273 W/m² | - |
| 1778192141 | 25.56° C | 74% | 1011.3 hPa | 0 mm | - | 252 W/m² | - |
| 1778191838 | 25.56° C | 73% | 1011.1 hPa | 0 mm | - | 279 W/m² | - |
| 1778191535 | 25.56° C | 72% | 1011.1 hPa | 0 mm | - | 291 W/m² | - |
| 1778191233 | 25.56° C | 74% | 1011.1 hPa | 0 mm | - | 293 W/m² | - |
| 1778190929 | 25.56° C | 73% | 1010.9 hPa | 0 mm | - | 350 W/m² | - |
| 1778190627 | 25.56° C | 77% | 1011.1 hPa | 0 mm | - | 396 W/m² | - |
| 1778190324 | 25° C | 77% | 1011.2 hPa | 0 mm | - | 357 W/m² | - |
| 1778190020 | 25° C | 77% | 1011 hPa | 0 mm | - | 100 W/m² | - |
| 1778189716 | 24.44° C | 78% | 1011.1 hPa | 0 mm | - | 301 W/m² | - |
| 1778189413 | 25° C | 78% | 1011.3 hPa | 0 mm | - | 97 W/m² | - |
| 1778189109 | 25.56° C | 75% | 1011.1 hPa | 0 mm | - | 82 W/m² | - |
* Rain latest hour (hover to see other rain measurements)
** Current wind speed in m/s (hover to see current wind gust speed)